sensor_id;sensor_type;location;lat;lon;timestamp;P1;durP1;ratioP1;P2;durP2;ratioP2
51602;SDS011;37954;51.980;5.850;2023-08-12T00:01:57;14.90;;;7.63;;
51602;SDS011;37954;51.980;5.850;2023-08-12T00:06:08;10.35;;;7.82;;
51602;SDS011;37954;51.980;5.850;2023-08-12T00:10:20;11.07;;;7.97;;
51602;SDS011;37954;51.980;5.850;2023-08-12T00:14:32;13.27;;;7.68;;
51602;SDS011;37954;51.980;5.850;2023-08-12T00:18:44;11.85;;;8.60;;
51602;SDS011;37954;51.980;5.850;2023-08-12T00:22:55;11.73;;;7.93;;
51602;SDS011;37954;51.980;5.850;2023-08-12T00:27:07;13.60;;;8.38;;
51602;SDS011;37954;51.980;5.850;2023-08-12T00:31:20;11.98;;;8.15;;
51602;SDS011;37954;51.980;5.850;2023-08-12T00:35:32;15.25;;;8.07;;
51602;SDS011;37954;51.980;5.850;2023-08-12T00:39:44;13.07;;;7.70;;
51602;SDS011;37954;51.980;5.850;2023-08-12T00:43:56;11.88;;;9.10;;
51602;SDS011;37954;51.980;5.850;2023-08-12T00:48:08;10.30;;;7.80;;
51602;SDS011;37954;51.980;5.850;2023-08-12T00:52:24;13.68;;;8.23;;
51602;SDS011;37954;51.980;5.850;2023-08-12T00:56:37;10.20;;;8.20;;
51602;SDS011;37954;51.980;5.850;2023-08-12T01:00:49;11.88;;;8.20;;
51602;SDS011;37954;51.980;5.850;2023-08-12T01:05:02;10.50;;;7.45;;
51602;SDS011;37954;51.980;5.850;2023-08-12T01:09:14;11.95;;;7.68;;
51602;SDS011;37954;51.980;5.850;2023-08-12T01:13:29;11.13;;;7.45;;
51602;SDS011;37954;51.980;5.850;2023-08-12T01:17:53;8.57;;;7.57;;
51602;SDS011;37954;51.980;5.850;2023-08-12T01:22:09;9.60;;;6.18;;
51602;SDS011;37954;51.980;5.850;2023-08-12T01:26:22;11.32;;;6.97;;
51602;SDS011;37954;51.980;5.850;2023-08-12T01:30:34;10.50;;;7.13;;
51602;SDS011;37954;51.980;5.850;2023-08-12T01:34:53;12.35;;;7.80;;
51602;SDS011;37954;51.980;5.850;2023-08-12T01:39:06;8.63;;;6.57;;
51602;SDS011;37954;51.980;5.850;2023-08-12T01:43:20;10.05;;;7.68;;
51602;SDS011;37954;51.980;5.850;2023-08-12T01:47:32;13.40;;;7.93;;
51602;SDS011;37954;51.980;5.850;2023-08-12T01:51:44;9.93;;;8.05;;
51602;SDS011;37954;51.980;5.850;2023-08-12T01:55:56;13.77;;;9.35;;
51602;SDS011;37954;51.980;5.850;2023-08-12T02:00:09;17.23;;;9.10;;
51602;SDS011;37954;51.980;5.850;2023-08-12T02:04:27;14.00;;;8.77;;
51602;SDS011;37954;51.980;5.850;2023-08-12T02:08:39;11.27;;;8.82;;
51602;SDS011;37954;51.980;5.850;2023-08-12T02:12:51;15.45;;;9.00;;
51602;SDS011;37954;51.980;5.850;2023-08-12T02:17:03;13.77;;;9.50;;
51602;SDS011;37954;51.980;5.850;2023-08-12T02:21:17;14.68;;;10.63;;
51602;SDS011;37954;51.980;5.850;2023-08-12T02:25:30;14.90;;;9.35;;
51602;SDS011;37954;51.980;5.850;2023-08-12T02:29:43;12.13;;;8.82;;
51602;SDS011;37954;51.980;5.850;2023-08-12T02:33:56;13.95;;;9.68;;
51602;SDS011;37954;51.980;5.850;2023-08-12T02:38:08;14.25;;;9.88;;
51602;SDS011;37954;51.980;5.850;2023-08-12T02:42:20;16.40;;;9.77;;
51602;SDS011;37954;51.980;5.850;2023-08-12T02:46:32;14.45;;;10.52;;
51602;SDS011;37954;51.980;5.850;2023-08-12T02:50:44;16.50;;;11.38;;
51602;SDS011;37954;51.980;5.850;2023-08-12T02:54:55;16.08;;;10.57;;
51602;SDS011;37954;51.980;5.850;2023-08-12T02:59:07;15.85;;;10.65;;
51602;SDS011;37954;51.980;5.850;2023-08-12T03:03:19;12.65;;;10.13;;
51602;SDS011;37954;51.980;5.850;2023-08-12T03:07:31;16.75;;;11.35;;
51602;SDS011;37954;51.980;5.850;2023-08-12T03:11:43;15.20;;;11.95;;
51602;SDS011;37954;51.980;5.850;2023-08-12T03:15:55;14.57;;;11.40;;
51602;SDS011;37954;51.980;5.850;2023-08-12T03:20:07;16.02;;;11.75;;
51602;SDS011;37954;51.980;5.850;2023-08-12T03:24:21;16.67;;;12.23;;
51602;SDS011;37954;51.980;5.850;2023-08-12T03:28:33;14.23;;;12.20;;
51602;SDS011;37954;51.980;5.850;2023-08-12T03:32:45;19.60;;;11.35;;
51602;SDS011;37954;51.980;5.850;2023-08-12T03:36:57;15.63;;;11.73;;
51602;SDS011;37954;51.980;5.850;2023-08-12T03:41:09;15.75;;;12.02;;
51602;SDS011;37954;51.980;5.850;2023-08-12T03:45:21;19.67;;;12.70;;
51602;SDS011;37954;51.980;5.850;2023-08-12T03:49:33;18.05;;;12.32;;
51602;SDS011;37954;51.980;5.850;2023-08-12T03:53:46;13.88;;;11.45;;
51602;SDS011;37954;51.980;5.850;2023-08-12T03:57:58;15.15;;;12.02;;
51602;SDS011;37954;51.980;5.850;2023-08-12T04:02:11;17.02;;;11.45;;
51602;SDS011;37954;51.980;5.850;2023-08-12T04:06:23;17.70;;;12.48;;
51602;SDS011;37954;51.980;5.850;2023-08-12T04:10:35;19.60;;;12.63;;
51602;SDS011;37954;51.980;5.850;2023-08-12T04:14:46;15.45;;;12.27;;
51602;SDS011;37954;51.980;5.850;2023-08-12T04:18:59;15.52;;;12.18;;
51602;SDS011;37954;51.980;5.850;2023-08-12T04:23:11;15.18;;;11.20;;
51602;SDS011;37954;51.980;5.850;2023-08-12T04:27:22;18.33;;;12.52;;
51602;SDS011;37954;51.980;5.850;2023-08-12T04:31:35;15.68;;;12.20;;
51602;SDS011;37954;51.980;5.850;2023-08-12T04:35:47;13.45;;;11.65;;
51602;SDS011;37954;51.980;5.850;2023-08-12T04:40:01;17.25;;;12.52;;
51602;SDS011;37954;51.980;5.850;2023-08-12T04:44:15;20.20;;;13.25;;
51602;SDS011;37954;51.980;5.850;2023-08-12T04:48:27;19.63;;;14.35;;
51602;SDS011;37954;51.980;5.850;2023-08-12T04:52:39;21.08;;;14.05;;
51602;SDS011;37954;51.980;5.850;2023-08-12T04:56:51;16.42;;;13.27;;
51602;SDS011;37954;51.980;5.850;2023-08-12T05:01:02;15.75;;;12.95;;
51602;SDS011;37954;51.980;5.850;2023-08-12T05:05:15;20.33;;;13.82;;
51602;SDS011;37954;51.980;5.850;2023-08-12T05:09:26;20.80;;;14.82;;
51602;SDS011;37954;51.980;5.850;2023-08-12T05:13:38;17.00;;;13.77;;
51602;SDS011;37954;51.980;5.850;2023-08-12T05:17:50;16.30;;;12.07;;
51602;SDS011;37954;51.980;5.850;2023-08-12T05:22:05;17.10;;;12.57;;
51602;SDS011;37954;51.980;5.850;2023-08-12T05:26:17;18.45;;;11.85;;
51602;SDS011;37954;51.980;5.850;2023-08-12T05:30:29;16.90;;;12.27;;
51602;SDS011;37954;51.980;5.850;2023-08-12T05:34:41;16.92;;;11.27;;
51602;SDS011;37954;51.980;5.850;2023-08-12T05:38:52;14.32;;;11.70;;
51602;SDS011;37954;51.980;5.850;2023-08-12T05:43:04;16.33;;;11.73;;
51602;SDS011;37954;51.980;5.850;2023-08-12T05:47:16;19.80;;;11.77;;
51602;SDS011;37954;51.980;5.850;2023-08-12T05:51:28;16.20;;;11.00;;
51602;SDS011;37954;51.980;5.850;2023-08-12T05:55:41;12.18;;;10.27;;
51602;SDS011;37954;51.980;5.850;2023-08-12T05:59:52;13.80;;;9.10;;
51602;SDS011;37954;51.980;5.850;2023-08-12T06:04:04;13.63;;;8.88;;
51602;SDS011;37954;51.980;5.850;2023-08-12T06:08:16;11.68;;;9.30;;
51602;SDS011;37954;51.980;5.850;2023-08-12T06:12:28;14.30;;;8.27;;
51602;SDS011;37954;51.980;5.850;2023-08-12T06:16:40;9.95;;;8.13;;
51602;SDS011;37954;51.980;5.850;2023-08-12T06:20:52;12.27;;;8.60;;
51602;SDS011;37954;51.980;5.850;2023-08-12T06:25:04;11.10;;;8.85;;
51602;SDS011;37954;51.980;5.850;2023-08-12T06:29:16;13.50;;;8.55;;
51602;SDS011;37954;51.980;5.850;2023-08-12T06:33:27;9.05;;;7.53;;
51602;SDS011;37954;51.980;5.850;2023-08-12T06:37:39;12.43;;;7.43;;
51602;SDS011;37954;51.980;5.850;2023-08-12T06:41:51;5.43;;;4.22;;
51602;SDS011;37954;51.980;5.850;2023-08-12T06:46:03;5.78;;;4.38;;
51602;SDS011;37954;51.980;5.850;2023-08-12T06:50:15;10.23;;;4.38;;
51602;SDS011;37954;51.980;5.850;2023-08-12T06:54:27;5.38;;;4.15;;
51602;SDS011;37954;51.980;5.850;2023-08-12T06:58:39;5.70;;;4.80;;
51602;SDS011;37954;51.980;5.850;2023-08-12T07:02:51;7.32;;;4.60;;
51602;SDS011;37954;51.980;5.850;2023-08-12T07:07:02;6.80;;;4.47;;
51602;SDS011;37954;51.980;5.850;2023-08-12T07:11:14;6.60;;;4.45;;
51602;SDS011;37954;51.980;5.850;2023-08-12T07:15:26;5.38;;;4.25;;
51602;SDS011;37954;51.980;5.850;2023-08-12T07:19:38;8.65;;;4.55;;
51602;SDS011;37954;51.980;5.850;2023-08-12T07:23:49;7.20;;;4.97;;
51602;SDS011;37954;51.980;5.850;2023-08-12T07:28:14;6.95;;;4.65;;
51602;SDS011;37954;51.980;5.850;2023-08-12T07:32:26;6.47;;;4.90;;
51602;SDS011;37954;51.980;5.850;2023-08-12T07:36:38;8.80;;;5.45;;
51602;SDS011;37954;51.980;5.850;2023-08-12T07:40:51;8.40;;;4.80;;
51602;SDS011;37954;51.980;5.850;2023-08-12T07:45:03;8.75;;;4.40;;
51602;SDS011;37954;51.980;5.850;2023-08-12T07:49:16;6.03;;;4.85;;
51602;SDS011;37954;51.980;5.850;2023-08-12T07:53:28;6.53;;;5.07;;
51602;SDS011;37954;51.980;5.850;2023-08-12T07:57:40;6.60;;;5.15;;
51602;SDS011;37954;51.980;5.850;2023-08-12T08:01:51;5.45;;;4.78;;
51602;SDS011;37954;51.980;5.850;2023-08-12T08:06:03;7.57;;;4.60;;
51602;SDS011;37954;51.980;5.850;2023-08-12T08:10:15;5.85;;;3.83;;
51602;SDS011;37954;51.980;5.850;2023-08-12T08:14:27;4.72;;;3.67;;
51602;SDS011;37954;51.980;5.850;2023-08-12T08:18:38;3.65;;;2.97;;
51602;SDS011;37954;51.980;5.850;2023-08-12T08:22:50;3.72;;;2.67;;
51602;SDS011;37954;51.980;5.850;2023-08-12T08:27:03;2.83;;;2.50;;
51602;SDS011;37954;51.980;5.850;2023-08-12T08:31:15;2.88;;;2.58;;
51602;SDS011;37954;51.980;5.850;2023-08-12T08:35:27;3.08;;;2.53;;
51602;SDS011;37954;51.980;5.850;2023-08-12T08:39:39;2.78;;;2.58;;
51602;SDS011;37954;51.980;5.850;2023-08-12T08:43:52;2.63;;;2.28;;
51602;SDS011;37954;51.980;5.850;2023-08-12T08:48:07;3.40;;;3.10;;
51602;SDS011;37954;51.980;5.850;2023-08-12T08:52:21;2.58;;;2.38;;
51602;SDS011;37954;51.980;5.850;2023-08-12T08:56:34;3.10;;;2.80;;
51602;SDS011;37954;51.980;5.850;2023-08-12T09:00:51;3.13;;;2.78;;
51602;SDS011;37954;51.980;5.850;2023-08-12T09:05:03;3.50;;;2.78;;
51602;SDS011;37954;51.980;5.850;2023-08-12T09:09:16;4.82;;;2.58;;
51602;SDS011;37954;51.980;5.850;2023-08-12T09:13:31;2.50;;;2.30;;
51602;SDS011;37954;51.980;5.850;2023-08-12T09:17:43;2.60;;;2.40;;
51602;SDS011;37954;51.980;5.850;2023-08-12T09:21:55;2.78;;;2.58;;
51602;SDS011;37954;51.980;5.850;2023-08-12T09:26:14;2.50;;;2.30;;
51602;SDS011;37954;51.980;5.850;2023-08-12T09:30:30;1.85;;;1.75;;
51602;SDS011;37954;51.980;5.850;2023-08-12T09:35:01;1.63;;;1.52;;
51602;SDS011;37954;51.980;5.850;2023-08-12T09:39:17;1.70;;;1.60;;
51602;SDS011;37954;51.980;5.850;2023-08-12T09:43:30;1.40;;;1.30;;
51602;SDS011;37954;51.980;5.850;2023-08-12T09:47:43;0.98;;;0.98;;
51602;SDS011;37954;51.980;5.850;2023-08-12T09:51:56;1.00;;;1.00;;
51602;SDS011;37954;51.980;5.850;2023-08-12T09:56:09;1.10;;;1.00;;
51602;SDS011;37954;51.980;5.850;2023-08-12T10:00:23;0.90;;;0.90;;
51602;SDS011;37954;51.980;5.850;2023-08-12T10:04:40;0.95;;;0.95;;
51602;SDS011;37954;51.980;5.850;2023-08-12T10:08:55;1.77;;;1.20;;
51602;SDS011;37954;51.980;5.850;2023-08-12T10:13:09;1.35;;;1.20;;
51602;SDS011;37954;51.980;5.850;2023-08-12T10:17:21;1.20;;;1.10;;
51602;SDS011;37954;51.980;5.850;2023-08-12T10:21:53;1.73;;;1.02;;
51602;SDS011;37954;51.980;5.850;2023-08-12T10:26:06;0.90;;;0.90;;
51602;SDS011;37954;51.980;5.850;2023-08-12T10:30:20;0.95;;;0.95;;
51602;SDS011;37954;51.980;5.850;2023-08-12T10:34:32;1.23;;;1.13;;
51602;SDS011;37954;51.980;5.850;2023-08-12T10:38:43;1.38;;;1.27;;
51602;SDS011;37954;51.980;5.850;2023-08-12T10:42:56;1.48;;;1.38;;
51602;SDS011;37954;51.980;5.850;2023-08-12T10:47:08;3.30;;;1.80;;
51602;SDS011;37954;51.980;5.850;2023-08-12T10:55:58;1.90;;;1.70;;
51602;SDS011;37954;51.980;5.850;2023-08-12T11:00:15;1.58;;;1.48;;
51602;SDS011;37954;51.980;5.850;2023-08-12T11:04:28;3.72;;;1.58;;
51602;SDS011;37954;51.980;5.850;2023-08-12T11:08:52;4.90;;;1.77;;
51602;SDS011;37954;51.980;5.850;2023-08-12T11:13:04;3.45;;;1.30;;
51602;SDS011;37954;51.980;5.850;2023-08-12T11:17:16;1.60;;;1.50;;
51602;SDS011;37954;51.980;5.850;2023-08-12T11:21:28;1.67;;;1.40;;
51602;SDS011;37954;51.980;5.850;2023-08-12T11:25:42;2.53;;;1.20;;
51602;SDS011;37954;51.980;5.850;2023-08-12T11:29:55;1.60;;;1.35;;
51602;SDS011;37954;51.980;5.850;2023-08-12T11:34:07;4.63;;;1.83;;
51602;SDS011;37954;51.980;5.850;2023-08-12T11:38:18;3.53;;;1.80;;
51602;SDS011;37954;51.980;5.850;2023-08-12T11:42:30;3.38;;;1.80;;
51602;SDS011;37954;51.980;5.850;2023-08-12T11:46:42;3.20;;;1.75;;
51602;SDS011;37954;51.980;5.850;2023-08-12T11:50:54;2.28;;;1.77;;
51602;SDS011;37954;51.980;5.850;2023-08-12T11:55:06;2.60;;;1.50;;
51602;SDS011;37954;51.980;5.850;2023-08-12T11:59:21;2.53;;;1.70;;
51602;SDS011;37954;51.980;5.850;2023-08-12T12:03:33;2.88;;;1.80;;
51602;SDS011;37954;51.980;5.850;2023-08-12T12:07:46;2.03;;;1.83;;
51602;SDS011;37954;51.980;5.850;2023-08-12T12:12:00;3.28;;;1.70;;
51602;SDS011;37954;51.980;5.850;2023-08-12T12:16:12;2.50;;;1.67;;
51602;SDS011;37954;51.980;5.850;2023-08-12T12:20:23;3.20;;;2.03;;
51602;SDS011;37954;51.980;5.850;2023-08-12T12:24:46;3.15;;;1.77;;
51602;SDS011;37954;51.980;5.850;2023-08-12T12:28:58;5.47;;;1.92;;
51602;SDS011;37954;51.980;5.850;2023-08-12T12:33:10;5.00;;;1.80;;
51602;SDS011;37954;51.980;5.850;2023-08-12T12:37:22;3.72;;;1.90;;
51602;SDS011;37954;51.980;5.850;2023-08-12T12:41:34;3.63;;;1.80;;
51602;SDS011;37954;51.980;5.850;2023-08-12T12:45:46;3.38;;;2.20;;
51602;SDS011;37954;51.980;5.850;2023-08-12T12:49:57;1.73;;;1.63;;
51602;SDS011;37954;51.980;5.850;2023-08-12T12:54:09;4.55;;;1.83;;
51602;SDS011;37954;51.980;5.850;2023-08-12T12:58:21;1.70;;;1.60;;
51602;SDS011;37954;51.980;5.850;2023-08-12T13:02:34;2.00;;;1.75;;
51602;SDS011;37954;51.980;5.850;2023-08-12T13:06:46;2.70;;;1.83;;
51602;SDS011;37954;51.980;5.850;2023-08-12T13:10:58;6.03;;;1.88;;
51602;SDS011;37954;51.980;5.850;2023-08-12T13:15:09;3.88;;;1.95;;
51602;SDS011;37954;51.980;5.850;2023-08-12T13:19:21;5.68;;;2.15;;
51602;SDS011;37954;51.980;5.850;2023-08-12T13:23:33;5.65;;;2.33;;
51602;SDS011;37954;51.980;5.850;2023-08-12T13:27:45;2.22;;;1.52;;
51602;SDS011;37954;51.980;5.850;2023-08-12T13:31:56;3.40;;;2.00;;
51602;SDS011;37954;51.980;5.850;2023-08-12T13:36:08;4.45;;;1.85;;
51602;SDS011;37954;51.980;5.850;2023-08-12T13:40:20;5.75;;;2.08;;
51602;SDS011;37954;51.980;5.850;2023-08-12T13:44:32;2.55;;;1.67;;
51602;SDS011;37954;51.980;5.850;2023-08-12T13:48:46;1.55;;;1.45;;
51602;SDS011;37954;51.980;5.850;2023-08-12T13:53:44;1.33;;;1.23;;
51602;SDS011;37954;51.980;5.850;2023-08-12T13:57:55;2.80;;;1.67;;
51602;SDS011;37954;51.980;5.850;2023-08-12T14:02:07;2.80;;;1.60;;
51602;SDS011;37954;51.980;5.850;2023-08-12T14:06:19;2.40;;;1.73;;
51602;SDS011;37954;51.980;5.850;2023-08-12T14:10:30;1.73;;;1.40;;
51602;SDS011;37954;51.980;5.850;2023-08-12T14:14:42;1.83;;;1.40;;
51602;SDS011;37954;51.980;5.850;2023-08-12T14:18:54;4.47;;;1.92;;
51602;SDS011;37954;51.980;5.850;2023-08-12T14:23:05;5.65;;;2.15;;
51602;SDS011;37954;51.980;5.850;2023-08-12T14:27:17;2.67;;;1.90;;
51602;SDS011;37954;51.980;5.850;2023-08-12T14:31:29;2.90;;;1.80;;
51602;SDS011;37954;51.980;5.850;2023-08-12T14:35:40;3.42;;;2.00;;
51602;SDS011;37954;51.980;5.850;2023-08-12T14:39:52;4.93;;;2.17;;
51602;SDS011;37954;51.980;5.850;2023-08-12T14:44:04;2.80;;;1.63;;
51602;SDS011;37954;51.980;5.850;2023-08-12T14:48:15;3.40;;;1.95;;
51602;SDS011;37954;51.980;5.850;2023-08-12T14:52:28;2.05;;;1.70;;
51602;SDS011;37954;51.980;5.850;2023-08-12T14:56:40;5.32;;;2.17;;
51602;SDS011;37954;51.980;5.850;2023-08-12T15:05:12;3.35;;;1.95;;
51602;SDS011;37954;51.980;5.850;2023-08-12T15:09:23;2.88;;;1.65;;
51602;SDS011;37954;51.980;5.850;2023-08-12T15:13:35;11.98;;;2.05;;
51602;SDS011;37954;51.980;5.850;2023-08-12T15:17:47;3.15;;;1.88;;
51602;SDS011;37954;51.980;5.850;2023-08-12T15:21:59;3.60;;;1.70;;
51602;SDS011;37954;51.980;5.850;2023-08-12T15:30:29;6.28;;;1.90;;
51602;SDS011;37954;51.980;5.850;2023-08-12T15:34:41;2.67;;;1.80;;
51602;SDS011;37954;51.980;5.850;2023-08-12T15:38:53;3.33;;;1.75;;
51602;SDS011;37954;51.980;5.850;2023-08-12T15:43:04;5.30;;;1.73;;
51602;SDS011;37954;51.980;5.850;2023-08-12T15:47:16;3.03;;;1.70;;
51602;SDS011;37954;51.980;5.850;2023-08-12T15:51:28;2.67;;;1.77;;
51602;SDS011;37954;51.980;5.850;2023-08-12T15:55:40;7.00;;;1.75;;
51602;SDS011;37954;51.980;5.850;2023-08-12T15:59:52;5.90;;;1.90;;
51602;SDS011;37954;51.980;5.850;2023-08-12T16:04:04;4.25;;;1.55;;
51602;SDS011;37954;51.980;5.850;2023-08-12T16:08:16;11.00;;;2.20;;
51602;SDS011;37954;51.980;5.850;2023-08-12T16:12:28;3.38;;;2.00;;
51602;SDS011;37954;51.980;5.850;2023-08-12T16:16:39;3.45;;;1.83;;
51602;SDS011;37954;51.980;5.850;2023-08-12T16:20:51;6.18;;;1.90;;
51602;SDS011;37954;51.980;5.850;2023-08-12T16:25:04;5.55;;;2.28;;
51602;SDS011;37954;51.980;5.850;2023-08-12T16:29:16;4.95;;;1.92;;
51602;SDS011;37954;51.980;5.850;2023-08-12T16:33:28;3.47;;;2.45;;
51602;SDS011;37954;51.980;5.850;2023-08-12T16:37:40;4.05;;;1.90;;
51602;SDS011;37954;51.980;5.850;2023-08-12T16:41:51;4.93;;;1.75;;
51602;SDS011;37954;51.980;5.850;2023-08-12T16:46:03;5.43;;;2.72;;
51602;SDS011;37954;51.980;5.850;2023-08-12T16:50:17;6.43;;;3.25;;
51602;SDS011;37954;51.980;5.850;2023-08-12T16:54:29;4.03;;;2.05;;
51602;SDS011;37954;51.980;5.850;2023-08-12T16:58:41;7.13;;;2.35;;
51602;SDS011;37954;51.980;5.850;2023-08-12T17:02:52;21.85;;;12.35;;
51602;SDS011;37954;51.980;5.850;2023-08-12T17:07:04;11.35;;;5.90;;
51602;SDS011;37954;51.980;5.850;2023-08-12T17:11:17;6.78;;;2.65;;
51602;SDS011;37954;51.980;5.850;2023-08-12T17:15:28;2.55;;;1.73;;
51602;SDS011;37954;51.980;5.850;2023-08-12T17:19:41;2.70;;;1.98;;
51602;SDS011;37954;51.980;5.850;2023-08-12T17:23:53;5.43;;;1.83;;
51602;SDS011;37954;51.980;5.850;2023-08-12T17:28:05;4.53;;;1.58;;
51602;SDS011;37954;51.980;5.850;2023-08-12T17:32:17;3.33;;;1.60;;
51602;SDS011;37954;51.980;5.850;2023-08-12T17:36:28;3.13;;;1.55;;
51602;SDS011;37954;51.980;5.850;2023-08-12T17:40:40;4.57;;;2.03;;
51602;SDS011;37954;51.980;5.850;2023-08-12T17:44:52;2.25;;;1.60;;
51602;SDS011;37954;51.980;5.850;2023-08-12T17:49:04;4.72;;;1.95;;
51602;SDS011;37954;51.980;5.850;2023-08-12T17:53:16;3.08;;;1.75;;
51602;SDS011;37954;51.980;5.850;2023-08-12T17:57:28;3.03;;;1.73;;
51602;SDS011;37954;51.980;5.850;2023-08-12T18:01:39;6.07;;;1.77;;
51602;SDS011;37954;51.980;5.850;2023-08-12T18:05:51;3.65;;;1.83;;
51602;SDS011;37954;51.980;5.850;2023-08-12T18:10:03;3.47;;;2.10;;
51602;SDS011;37954;51.980;5.850;2023-08-12T18:14:16;8.23;;;2.10;;
51602;SDS011;37954;51.980;5.850;2023-08-12T18:18:28;12.57;;;3.10;;
51602;SDS011;37954;51.980;5.850;2023-08-12T18:22:40;4.50;;;3.33;;
51602;SDS011;37954;51.980;5.850;2023-08-12T18:26:52;5.75;;;3.78;;
51602;SDS011;37954;51.980;5.850;2023-08-12T18:31:03;9.55;;;3.90;;
51602;SDS011;37954;51.980;5.850;2023-08-12T18:35:15;6.40;;;3.10;;
51602;SDS011;37954;51.980;5.850;2023-08-12T18:39:42;3.65;;;2.67;;
51602;SDS011;37954;51.980;5.850;2023-08-12T18:43:54;4.47;;;2.42;;
51602;SDS011;37954;51.980;5.850;2023-08-12T18:48:06;4.22;;;2.00;;
51602;SDS011;37954;51.980;5.850;2023-08-12T18:52:18;3.45;;;2.17;;
51602;SDS011;37954;51.980;5.850;2023-08-12T18:56:30;2.42;;;1.80;;
51602;SDS011;37954;51.980;5.850;2023-08-12T19:00:42;6.43;;;2.00;;
51602;SDS011;37954;51.980;5.850;2023-08-12T19:04:54;6.22;;;3.83;;
51602;SDS011;37954;51.980;5.850;2023-08-12T19:09:05;5.20;;;2.50;;
51602;SDS011;37954;51.980;5.850;2023-08-12T19:13:17;3.90;;;2.17;;
51602;SDS011;37954;51.980;5.850;2023-08-12T19:17:29;2.60;;;2.05;;
51602;SDS011;37954;51.980;5.850;2023-08-12T19:21:41;4.47;;;2.28;;
51602;SDS011;37954;51.980;5.850;2023-08-12T19:25:53;7.78;;;1.95;;
51602;SDS011;37954;51.980;5.850;2023-08-12T19:30:05;6.28;;;2.45;;
51602;SDS011;37954;51.980;5.850;2023-08-12T19:34:21;4.78;;;2.00;;
51602;SDS011;37954;51.980;5.850;2023-08-12T19:38:32;4.40;;;1.88;;
51602;SDS011;37954;51.980;5.850;2023-08-12T19:42:44;5.60;;;3.17;;
51602;SDS011;37954;51.980;5.850;2023-08-12T19:46:56;5.50;;;3.17;;
51602;SDS011;37954;51.980;5.850;2023-08-12T19:51:08;4.57;;;2.60;;
51602;SDS011;37954;51.980;5.850;2023-08-12T19:55:20;3.80;;;2.15;;
51602;SDS011;37954;51.980;5.850;2023-08-12T19:59:32;4.38;;;3.03;;
51602;SDS011;37954;51.980;5.850;2023-08-12T20:03:44;5.65;;;3.00;;
51602;SDS011;37954;51.980;5.850;2023-08-12T20:07:56;5.32;;;2.80;;
51602;SDS011;37954;51.980;5.850;2023-08-12T20:12:07;4.57;;;2.97;;
51602;SDS011;37954;51.980;5.850;2023-08-12T20:16:19;6.43;;;3.60;;
51602;SDS011;37954;51.980;5.850;2023-08-12T20:20:31;5.28;;;3.83;;
51602;SDS011;37954;51.980;5.850;2023-08-12T20:24:44;7.22;;;3.78;;
51602;SDS011;37954;51.980;5.850;2023-08-12T20:28:56;5.03;;;3.13;;
51602;SDS011;37954;51.980;5.850;2023-08-12T20:33:07;9.15;;;3.38;;
51602;SDS011;37954;51.980;5.850;2023-08-12T20:37:21;9.05;;;3.17;;
51602;SDS011;37954;51.980;5.850;2023-08-12T20:41:32;6.85;;;3.25;;
51602;SDS011;37954;51.980;5.850;2023-08-12T20:45:44;4.15;;;3.00;;
51602;SDS011;37954;51.980;5.850;2023-08-12T20:49:56;8.07;;;2.92;;
51602;SDS011;37954;51.980;5.850;2023-08-12T20:54:07;8.57;;;2.95;;
51602;SDS011;37954;51.980;5.850;2023-08-12T20:58:19;7.65;;;3.15;;
51602;SDS011;37954;51.980;5.850;2023-08-12T21:02:32;6.72;;;3.10;;
51602;SDS011;37954;51.980;5.850;2023-08-12T21:06:44;5.35;;;3.55;;
51602;SDS011;37954;51.980;5.850;2023-08-12T21:10:56;4.75;;;2.88;;
51602;SDS011;37954;51.980;5.850;2023-08-12T21:15:07;3.30;;;2.40;;
51602;SDS011;37954;51.980;5.850;2023-08-12T21:19:19;8.32;;;2.88;;
51602;SDS011;37954;51.980;5.850;2023-08-12T21:23:31;11.18;;;4.45;;
51602;SDS011;37954;51.980;5.850;2023-08-12T21:27:43;12.35;;;5.40;;
51602;SDS011;37954;51.980;5.850;2023-08-12T21:31:55;7.88;;;4.43;;
51602;SDS011;37954;51.980;5.850;2023-08-12T21:36:06;6.05;;;3.83;;
51602;SDS011;37954;51.980;5.850;2023-08-12T21:40:18;7.00;;;4.32;;
51602;SDS011;37954;51.980;5.850;2023-08-12T21:44:30;9.02;;;3.85;;
51602;SDS011;37954;51.980;5.850;2023-08-12T21:48:42;10.23;;;3.65;;
51602;SDS011;37954;51.980;5.850;2023-08-12T21:52:53;5.70;;;3.38;;
51602;SDS011;37954;51.980;5.850;2023-08-12T21:57:05;8.27;;;3.88;;
51602;SDS011;37954;51.980;5.850;2023-08-12T22:01:17;6.30;;;3.67;;
51602;SDS011;37954;51.980;5.850;2023-08-12T22:05:30;7.18;;;3.97;;
51602;SDS011;37954;51.980;5.850;2023-08-12T22:09:42;5.28;;;3.95;;
51602;SDS011;37954;51.980;5.850;2023-08-12T22:13:53;7.13;;;4.05;;
51602;SDS011;37954;51.980;5.850;2023-08-12T22:18:05;5.65;;;3.65;;
51602;SDS011;37954;51.980;5.850;2023-08-12T22:22:17;8.50;;;3.70;;
51602;SDS011;37954;51.980;5.850;2023-08-12T22:26:30;7.68;;;3.55;;
51602;SDS011;37954;51.980;5.850;2023-08-12T22:30:42;5.07;;;3.10;;
51602;SDS011;37954;51.980;5.850;2023-08-12T22:34:54;9.00;;;3.80;;
51602;SDS011;37954;51.980;5.850;2023-08-12T22:39:06;7.80;;;3.20;;
51602;SDS011;37954;51.980;5.850;2023-08-12T22:43:18;7.43;;;3.40;;
51602;SDS011;37954;51.980;5.850;2023-08-12T22:47:33;7.70;;;2.90;;
51602;SDS011;37954;51.980;5.850;2023-08-12T22:51:44;7.15;;;3.15;;
51602;SDS011;37954;51.980;5.850;2023-08-12T22:55:56;5.30;;;2.90;;
51602;SDS011;37954;51.980;5.850;2023-08-12T23:00:08;6.65;;;2.90;;
51602;SDS011;37954;51.980;5.850;2023-08-12T23:04:21;5.53;;;2.90;;
51602;SDS011;37954;51.980;5.850;2023-08-12T23:08:33;5.97;;;2.75;;
51602;SDS011;37954;51.980;5.850;2023-08-12T23:12:44;10.32;;;2.58;;
51602;SDS011;37954;51.980;5.850;2023-08-12T23:16:56;5.55;;;2.70;;
51602;SDS011;37954;51.980;5.850;2023-08-12T23:21:08;5.22;;;2.65;;
51602;SDS011;37954;51.980;5.850;2023-08-12T23:25:20;5.75;;;2.67;;
51602;SDS011;37954;51.980;5.850;2023-08-12T23:29:31;11.45;;;2.88;;
51602;SDS011;37954;51.980;5.850;2023-08-12T23:33:43;5.43;;;2.65;;
51602;SDS011;37954;51.980;5.850;2023-08-12T23:37:55;8.68;;;2.75;;
51602;SDS011;37954;51.980;5.850;2023-08-12T23:42:07;5.40;;;2.72;;
51602;SDS011;37954;51.980;5.850;2023-08-12T23:46:18;6.57;;;2.28;;
51602;SDS011;37954;51.980;5.850;2023-08-12T23:50:30;3.92;;;2.20;;
51602;SDS011;37954;51.980;5.850;2023-08-12T23:54:42;5.07;;;2.83;;
51602;SDS011;37954;51.980;5.850;2023-08-12T23:58:54;5.68;;;2.50;;
